Time;durP1;ratioP1;P1;durP2;ratioP2;P2;SDS_P1;SDS_P2;PMS_P1;PMS_P2;Temp;Humidity;BMP_temperature;BMP_pressure;BME280_temperature;BME280_humidity;BME280_pressure;Samples;Min_cycle;Max_cycle;Signal;HPM_P1;HPM_P2
2023/04/30 00:02:24;;;;;;;4.47;3.50;;;14.50;99.90;;;;;;7387026;19;20146;-80
2023/04/30 00:04:50;;;;;;;3.85;3.20;;;14.40;99.90;;;;;;7384639;19;20603;-80
2023/04/30 00:07:15;;;;;;;3.72;3.13;;;14.40;99.90;;;;;;7387544;19;20178;-80
2023/04/30 00:09:42;;;;;;;3.60;3.22;;;14.50;99.90;;;;;;7384131;19;20211;-81
2023/04/30 00:12:07;;;;;;;5.82;3.40;;;14.50;99.90;;;;;;7388532;19;20137;-80
2023/04/30 00:14:33;;;;;;;3.70;2.95;;;14.50;99.90;;;;;;7386743;19;20135;-80
2023/04/30 00:16:59;;;;;;;3.35;3.05;;;14.50;99.90;;;;;;7384821;19;20507;-80
2023/04/30 00:19:25;;;;;;;3.30;2.90;;;14.60;99.90;;;;;;7387547;19;20122;-80
2023/04/30 00:21:50;;;;;;;4.10;2.97;;;14.50;99.90;;;;;;7386853;19;20130;-80
2023/04/30 00:24:16;;;;;;;3.78;2.90;;;14.40;99.90;;;;;;7386458;19;20134;-80
2023/04/30 00:26:42;;;;;;;4.32;3.20;;;14.40;99.90;;;;;;7388020;19;20484;-80
2023/04/30 00:29:09;;;;;;;4.10;3.25;;;14.40;99.90;;;;;;7389589;19;20614;-80
2023/04/30 00:31:35;;;;;;;3.65;3.03;;;14.30;99.90;;;;;;7388480;19;20175;-81
2023/04/30 00:34:01;;;;;;;3.83;3.28;;;14.20;99.90;;;;;;7388368;19;20126;-79
2023/04/30 00:36:26;;;;;;;4.35;3.35;;;14.30;99.90;;;;;;7385230;19;20157;-80
2023/04/30 00:38:52;;;;;;;4.47;3.10;;;14.30;99.90;;;;;;7387922;19;20135;-80
2023/04/30 00:41:19;;;;;;;4.93;3.20;;;14.30;99.90;;;;;;7386250;19;20178;-80
2023/04/30 00:43:46;;;;;;;4.23;3.37;;;14.20;99.90;;;;;;7386567;19;20137;-80
2023/04/30 00:46:11;;;;;;;4.03;3.30;;;14.30;99.90;;;;;;7383711;19;20154;-80
2023/04/30 00:48:38;;;;;;;3.88;3.40;;;14.20;99.90;;;;;;7387911;19;20131;-80
2023/04/30 00:51:04;;;;;;;4.32;3.30;;;14.20;99.90;;;;;;7388322;19;20142;-80
2023/04/30 00:53:31;;;;;;;4.07;3.28;;;14.30;99.90;;;;;;7386993;19;20148;-80
2023/04/30 00:55:57;;;;;;;5.17;3.47;;;14.30;99.90;;;;;;7385659;19;20460;-80
2023/04/30 00:58:23;;;;;;;5.65;4.03;;;14.10;99.90;;;;;;7384687;19;20135;-79
2023/04/30 01:00:49;;;;;;;5.22;3.33;;;14.10;99.90;;;;;;7385308;19;20142;-80
2023/04/30 01:03:15;;;;;;;5.90;3.65;;;14.10;99.90;;;;;;7388306;19;20122;-79
2023/04/30 01:05:41;;;;;;;5.40;3.63;;;14.10;99.90;;;;;;7386498;19;20675;-80
2023/04/30 01:08:09;;;;;;;5.88;3.67;;;14.10;99.90;;;;;;7384223;19;20151;-78
2023/04/30 01:10:43;;;;;;;5.03;3.63;;;14.20;99.90;;;;;;7384805;19;21428;-80
2023/04/30 01:13:28;;;;;;;5.50;4.18;;;14.30;99.90;;;;;;7385809;19;20307;-81
2023/04/30 01:16:17;;;;;;;8.13;3.90;;;14.20;99.90;;;;;;7381186;19;20154;-80
2023/04/30 01:18:56;;;;;;;5.97;4.20;;;14.10;99.90;;;;;;7383765;19;20221;-79
2023/04/30 01:21:23;;;;;;;5.83;4.10;;;14.10;99.90;;;;;;7382885;19;20146;-80
2023/04/30 01:23:51;;;;;;;6.70;4.50;;;14.20;99.90;;;;;;7382612;19;20219;-80
2023/04/30 01:26:32;;;;;;;6.10;3.92;;;14.20;99.90;;;;;;7384812;19;20619;-79
2023/04/30 01:28:59;;;;;;;6.32;4.28;;;14.10;99.90;;;;;;7385995;19;20194;-78
2023/04/30 01:31:27;;;;;;;5.70;4.53;;;14.10;99.90;;;;;;7384118;19;20482;-79
2023/04/30 01:33:53;;;;;;;7.80;4.07;;;14.10;99.90;;;;;;7383378;19;20154;-80
2023/04/30 01:36:30;;;;;;;5.72;4.13;;;14.10;99.90;;;;;;7380196;19;20139;-82
2023/04/30 01:39:33;;;;;;;6.53;4.83;;;14.10;99.90;;;;;;7384479;19;20210;-80
2023/04/30 01:42:35;;;;;;;5.53;4.10;;;14.00;99.90;;;;;;7381054;19;20158;-80
2023/04/30 01:45:27;;;;;;;4.73;3.77;;;14.10;99.90;;;;;;7386977;19;20139;-80
2023/04/30 01:48:17;;;;;;;5.63;4.28;;;14.10;99.90;;;;;;7384342;19;20147;-80
2023/04/30 01:50:52;;;;;;;5.53;4.40;;;14.10;99.90;;;;;;7384922;19;20169;-80
2023/04/30 01:53:26;;;;;;;5.57;4.63;;;14.00;99.90;;;;;;7380874;19;20194;-80
2023/04/30 01:56:03;;;;;;;7.43;4.82;;;14.00;99.90;;;;;;7383626;19;20141;-80
2023/04/30 01:58:29;;;;;;;6.57;4.60;;;14.10;99.90;;;;;;7383218;19;20154;-80
2023/04/30 02:00:55;;;;;;;6.05;4.78;;;14.00;99.90;;;;;;7384349;19;20147;-81
2023/04/30 02:03:20;;;;;;;6.63;4.93;;;14.10;99.90;;;;;;7380524;19;20158;-79
2023/04/30 02:05:47;;;;;;;6.17;4.83;;;14.00;99.90;;;;;;7384045;19;20171;-80
2023/04/30 02:08:13;;;;;;;6.90;5.03;;;13.90;99.90;;;;;;7386951;19;20134;-80
2023/04/30 02:10:39;;;;;;;7.73;5.30;;;13.80;99.90;;;;;;7391573;19;20138;-79
2023/04/30 02:13:04;;;;;;;7.73;4.67;;;13.80;99.90;;;;;;7388703;19;20162;-80
2023/04/30 02:15:30;;;;;;;7.60;5.03;;;13.80;99.90;;;;;;7390190;19;20154;-81
2023/04/30 02:17:56;;;;;;;6.25;4.80;;;13.80;99.90;;;;;;7390117;19;20131;-80
2023/04/30 02:20:22;;;;;;;6.65;4.63;;;13.80;99.90;;;;;;7385053;19;20607;-79
2023/04/30 02:22:47;;;;;;;7.70;5.50;;;13.80;99.90;;;;;;7391661;19;20483;-80
2023/04/30 02:25:13;;;;;;;7.37;5.10;;;13.80;99.90;;;;;;7392170;19;20237;-80
2023/04/30 02:27:39;;;;;;;7.03;5.17;;;13.70;99.90;;;;;;7388760;19;20131;-80
2023/04/30 02:30:05;;;;;;;6.65;5.57;;;13.80;99.90;;;;;;7392822;19;20143;-80
2023/04/30 02:32:31;;;;;;;7.30;5.47;;;13.70;99.90;;;;;;7389943;19;20127;-79
2023/04/30 02:34:57;;;;;;;7.27;5.10;;;13.70;99.90;;;;;;7389603;19;20150;-79
2023/04/30 02:37:23;;;;;;;8.57;5.43;;;13.70;99.90;;;;;;7389210;19;20218;-79
2023/04/30 02:39:49;;;;;;;7.10;5.40;;;13.70;99.90;;;;;;7389746;19;20134;-79
2023/04/30 02:42:15;;;;;;;7.82;5.45;;;13.70;99.90;;;;;;7389154;19;20153;-80
2023/04/30 02:44:41;;;;;;;6.95;5.65;;;13.70;99.90;;;;;;7388720;19;20154;-79
2023/04/30 02:47:07;;;;;;;7.60;6.00;;;13.80;99.90;;;;;;7384751;19;21873;-79
2023/04/30 02:49:32;;;;;;;7.90;5.77;;;13.60;99.90;;;;;;7390570;19;20236;-80
2023/04/30 02:51:58;;;;;;;7.38;5.60;;;13.70;99.90;;;;;;7387835;19;20135;-80
2023/04/30 02:54:24;;;;;;;8.77;5.30;;;13.70;99.90;;;;;;7387185;19;20123;-79
2023/04/30 02:56:50;;;;;;;10.30;5.60;;;13.80;99.90;;;;;;7382853;19;20714;-80
2023/04/30 02:59:16;;;;;;;7.17;5.80;;;13.80;99.90;;;;;;7387841;19;20135;-81
2023/04/30 03:01:41;;;;;;;7.25;5.93;;;13.80;99.90;;;;;;7387585;19;20277;-79
2023/04/30 03:04:07;;;;;;;8.83;5.87;;;13.90;99.90;;;;;;7387480;19;20131;-79
2023/04/30 03:06:33;;;;;;;7.25;5.40;;;13.80;99.90;;;;;;7389910;19;20544;-80
2023/04/30 03:08:59;;;;;;;7.30;5.68;;;13.70;99.90;;;;;;7387093;19;20203;-80
2023/04/30 03:11:25;;;;;;;7.77;5.70;;;13.80;99.90;;;;;;7387519;19;20150;-80
2023/04/30 03:13:51;;;;;;;8.63;5.32;;;13.80;99.90;;;;;;7388377;19;20141;-80
2023/04/30 03:16:18;;;;;;;10.77;6.13;;;13.70;99.90;;;;;;7387053;19;20587;-79
2023/04/30 03:18:45;;;;;;;7.28;5.72;;;13.70;99.90;;;;;;7388485;19;20576;-79
2023/04/30 03:21:11;;;;;;;7.47;5.70;;;13.70;99.90;;;;;;7385647;19;20156;-81
2023/04/30 03:23:37;;;;;;;8.10;5.43;;;13.70;99.90;;;;;;7388850;19;20650;-80
2023/04/30 03:26:02;;;;;;;7.78;5.70;;;13.70;99.90;;;;;;7389410;19;20492;-79
2023/04/30 03:28:28;;;;;;;6.72;5.18;;;13.70;99.90;;;;;;7389310;19;20765;-80
2023/04/30 03:30:54;;;;;;;6.80;5.80;;;13.70;99.90;;;;;;7387143;19;20277;-80
2023/04/30 03:33:20;;;;;;;6.93;5.68;;;13.60;99.90;;;;;;7387657;19;20147;-80
2023/04/30 03:35:46;;;;;;;9.00;5.88;;;13.60;99.90;;;;;;7386417;19;20619;-80
2023/04/30 03:38:12;;;;;;;7.30;4.95;;;13.60;99.90;;;;;;7386947;19;20157;-80
2023/04/30 03:40:37;;;;;;;8.68;5.70;;;13.60;99.90;;;;;;7387526;19;20168;-78
2023/04/30 03:43:04;;;;;;;7.45;5.43;;;13.60;99.90;;;;;;7386658;19;20149;-80
2023/04/30 03:45:30;;;;;;;6.20;5.35;;;13.70;99.90;;;;;;7387971;19;20654;-80
2023/04/30 03:47:56;;;;;;;8.45;5.97;;;13.70;99.90;;;;;;7387142;19;20155;-80
2023/04/30 03:50:22;;;;;;;9.18;6.13;;;13.60;99.90;;;;;;7388963;19;20142;-80
2023/04/30 03:52:48;;;;;;;7.07;5.25;;;13.60;99.90;;;;;;7386705;19;20234;-80
2023/04/30 03:55:13;;;;;;;7.07;5.38;;;13.60;99.90;;;;;;7387212;19;20134;-79
2023/04/30 03:57:39;;;;;;;8.82;6.90;;;13.70;99.90;;;;;;7389760;19;20154;-80
2023/04/30 04:00:15;;;;;;;8.02;6.30;;;13.70;99.90;;;;;;7387271;19;20291;-81
2023/04/30 04:02:41;;;;;;;8.07;5.80;;;13.70;99.90;;;;;;7388303;19;20183;-79
2023/04/30 04:05:07;;;;;;;7.00;5.30;;;13.70;99.90;;;;;;7388254;19;20879;-79
2023/04/30 04:07:32;;;;;;;8.05;5.60;;;13.60;99.90;;;;;;7387779;19;20475;-80
2023/04/30 04:09:58;;;;;;;9.87;6.53;;;13.60;99.90;;;;;;7387447;19;20137;-78
2023/04/30 04:12:24;;;;;;;7.93;5.70;;;13.60;99.90;;;;;;7387296;19;20301;-79
2023/04/30 04:14:50;;;;;;;9.95;6.43;;;13.50;99.90;;;;;;7385618;19;20147;-80
2023/04/30 04:17:15;;;;;;;6.50;5.55;;;13.50;99.90;;;;;;7383760;19;20627;-80
2023/04/30 04:19:41;;;;;;;11.02;5.85;;;13.50;99.90;;;;;;7386434;19;20139;-80
2023/04/30 04:22:07;;;;;;;7.50;5.53;;;13.40;99.90;;;;;;7385551;19;20209;-80
2023/04/30 04:24:32;;;;;;;8.75;5.97;;;13.20;99.90;;;;;;7384319;19;20626;-80
2023/04/30 04:27:01;;;;;;;7.82;5.88;;;13.30;99.90;;;;;;7385403;19;20174;-81
2023/04/30 04:29:27;;;;;;;8.35;5.95;;;13.40;99.90;;;;;;7386385;19;20154;-80
2023/04/30 04:31:54;;;;;;;7.75;5.45;;;13.20;99.90;;;;;;7385431;19;20146;-79
2023/04/30 04:34:20;;;;;;;8.82;6.53;;;13.30;99.90;;;;;;7388228;19;20139;-80
2023/04/30 04:36:45;;;;;;;7.67;5.50;;;13.50;99.90;;;;;;7384492;19;20146;-79
2023/04/30 04:39:12;;;;;;;9.65;6.45;;;13.50;99.90;;;;;;7386585;19;20154;-80
2023/04/30 04:41:38;;;;;;;8.93;5.60;;;13.60;99.90;;;;;;7384104;19;20174;-81
2023/04/30 04:44:04;;;;;;;8.07;6.00;;;13.50;99.90;;;;;;7385532;19;20158;-80
2023/04/30 04:46:31;;;;;;;9.07;6.10;;;13.50;99.90;;;;;;7385896;19;20142;-79
2023/04/30 04:48:59;;;;;;;7.97;6.23;;;13.50;99.90;;;;;;7385816;19;20161;-80
2023/04/30 04:51:26;;;;;;;6.07;5.35;;;13.50;99.90;;;;;;7385575;19;20259;-81
2023/04/30 04:53:51;;;;;;;6.70;5.75;;;13.50;99.90;;;;;;7383540;19;20157;-80
2023/04/30 04:56:17;;;;;;;7.53;6.00;;;13.60;99.90;;;;;;7383702;19;20153;-80
2023/04/30 04:58:43;;;;;;;8.60;5.90;;;13.60;99.90;;;;;;7384890;19;20517;-80
2023/04/30 05:01:10;;;;;;;10.00;6.57;;;13.50;99.90;;;;;;7384480;19;20236;-79
2023/04/30 05:03:38;;;;;;;8.10;6.07;;;13.50;99.90;;;;;;7385712;19;20158;-78
2023/04/30 05:06:05;;;;;;;7.00;5.90;;;13.50;99.90;;;;;;7386726;19;20150;-79
2023/04/30 05:08:30;;;;;;;7.20;5.83;;;13.50;99.90;;;;;;7386318;19;20142;-80
2023/04/30 05:10:56;;;;;;;7.37;6.00;;;13.70;99.90;;;;;;7386215;19;20202;-81
2023/04/30 05:13:22;;;;;;;8.35;6.03;;;13.60;99.90;;;;;;7385608;19;20150;-80
2023/04/30 05:15:52;;;;;;;9.97;6.33;;;13.60;99.90;;;;;;7384757;19;20269;-80
2023/04/30 05:18:19;;;;;;;7.50;5.83;;;13.70;99.90;;;;;;7385642;19;20473;-80
2023/04/30 05:20:44;;;;;;;10.00;6.23;;;13.70;99.90;;;;;;7384082;19;20479;-79
2023/04/30 05:23:11;;;;;;;9.50;6.80;;;13.80;99.90;;;;;;7387777;19;20142;-79
2023/04/30 05:25:37;;;;;;;7.93;5.87;;;13.70;99.90;;;;;;7384065;19;20475;-79
2023/04/30 05:28:03;;;;;;;7.50;6.23;;;13.70;99.90;;;;;;7385737;19;20149;-80
2023/04/30 05:30:29;;;;;;;6.90;5.85;;;13.80;99.90;;;;;;7384850;19;20143;-79
2023/04/30 05:32:56;;;;;;;8.07;6.33;;;13.80;99.90;;;;;;7384792;19;20152;-79
2023/04/30 05:35:22;;;;;;;9.67;6.23;;;13.90;99.90;;;;;;7384275;19;20612;-79
2023/04/30 05:37:47;;;;;;;8.07;5.90;;;13.80;99.90;;;;;;7383913;19;20158;-79
2023/04/30 05:40:13;;;;;;;7.63;5.90;;;13.90;99.90;;;;;;7386271;19;20154;-79
2023/04/30 05:42:42;;;;;;;8.05;6.00;;;13.90;99.90;;;;;;7380763;19;20182;-80
2023/04/30 05:45:09;;;;;;;7.57;6.23;;;13.90;99.90;;;;;;7391583;19;20158;-81
2023/04/30 05:47:34;;;;;;;7.80;6.60;;;14.00;99.90;;;;;;7390485;19;20145;-80
2023/04/30 05:50:00;;;;;;;10.07;6.35;;;14.10;99.90;;;;;;7393234;19;20131;-82
2023/04/30 05:52:26;;;;;;;8.82;6.40;;;14.00;99.90;;;;;;7391182;19;20127;-81
2023/04/30 05:54:52;;;;;;;6.50;5.78;;;14.00;99.90;;;;;;7393452;19;20202;-81
2023/04/30 05:57:18;;;;;;;8.15;5.95;;;14.10;99.90;;;;;;7389898;19;20484;-82
2023/04/30 05:59:44;;;;;;;7.72;5.95;;;14.10;99.90;;;;;;7392868;19;20219;-81
2023/04/30 06:02:10;;;;;;;7.35;5.63;;;14.20;99.90;;;;;;7392250;19;20139;-81
2023/04/30 06:04:36;;;;;;;6.80;5.37;;;14.30;99.90;;;;;;7392496;19;20146;-81
2023/04/30 06:07:01;;;;;;;8.00;5.95;;;14.00;99.90;;;;;;7393372;19;20137;-81
2023/04/30 06:09:27;;;;;;;8.43;5.43;;;14.20;99.90;;;;;;7391691;19;20163;-80
2023/04/30 06:11:54;;;;;;;6.20;5.17;;;14.20;99.90;;;;;;7390368;19;20138;-82
2023/04/30 06:14:21;;;;;;;6.63;5.00;;;14.30;99.90;;;;;;7391232;19;20147;-81
2023/04/30 06:16:48;;;;;;;8.80;5.40;;;14.30;99.90;;;;;;7388834;19;20150;-82
2023/04/30 06:19:14;;;;;;;6.45;5.80;;;14.30;99.90;;;;;;7388783;19;20143;-82
2023/04/30 06:21:42;;;;;;;8.30;5.82;;;14.40;99.90;;;;;;7391210;19;20146;-83
2023/04/30 06:24:09;;;;;;;7.70;5.80;;;14.40;99.90;;;;;;7389522;19;20138;-82
2023/04/30 06:26:35;;;;;;;6.75;5.30;;;14.50;99.90;;;;;;7389328;19;20142;-81
2023/04/30 06:29:01;;;;;;;7.65;5.30;;;14.30;99.90;;;;;;7389044;19;20143;-82
2023/04/30 06:31:26;;;;;;;6.97;5.38;;;14.50;99.90;;;;;;7388103;19;20254;-81
2023/04/30 06:33:52;;;;;;;7.60;5.55;;;14.60;99.90;;;;;;7388849;19;20135;-81
2023/04/30 06:36:18;;;;;;;6.95;5.32;;;14.60;99.90;;;;;;7388540;19;20151;-80
2023/04/30 06:38:46;;;;;;;7.88;5.28;;;14.70;99.90;;;;;;7390642;19;20138;-81
2023/04/30 06:41:12;;;;;;;7.95;5.68;;;14.70;99.90;;;;;;7388714;19;20190;-80
2023/04/30 06:43:38;;;;;;;6.47;5.25;;;14.30;99.90;;;;;;7390888;19;21144;-81
2023/04/30 06:46:05;;;;;;;6.30;4.95;;;14.40;99.90;;;;;;7390698;19;20147;-80
2023/04/30 06:48:31;;;;;;;6.45;5.63;;;14.50;99.90;;;;;;7390757;19;20495;-81
2023/04/30 06:50:57;;;;;;;7.03;5.65;;;14.70;99.90;;;;;;7388100;19;20164;-80
2023/04/30 06:53:23;;;;;;;7.35;5.50;;;14.70;99.90;;;;;;7390323;19;20202;-80
2023/04/30 06:55:50;;;;;;;8.13;5.18;;;14.80;99.90;;;;;;7386747;19;20590;-81
2023/04/30 06:58:17;;;;;;;6.32;4.88;;;14.90;99.90;;;;;;7389700;19;20159;-78
2023/04/30 07:00:43;;;;;;;7.07;5.22;;;15.10;99.90;;;;;;7389196;19;20151;-78
2023/04/30 07:03:09;;;;;;;8.07;5.35;;;15.20;99.90;;;;;;7391297;19;20151;-80
2023/04/30 07:05:34;;;;;;;7.00;5.13;;;15.40;99.90;;;;;;7393247;19;20153;-83
2023/04/30 07:08:02;;;;;;;6.07;4.70;;;15.30;99.90;;;;;;7387875;19;20170;-82
2023/04/30 07:10:28;;;;;;;5.50;4.90;;;15.50;99.90;;;;;;7389910;19;20139;-81
2023/04/30 07:12:54;;;;;;;7.70;5.43;;;15.70;99.90;;;;;;7388711;19;20210;-78
2023/04/30 07:15:20;;;;;;;6.07;5.30;;;15.80;99.90;;;;;;7390150;19;20154;-77
2023/04/30 07:17:46;;;;;;;6.00;4.70;;;16.20;99.90;;;;;;7389085;19;20184;-78
2023/04/30 07:20:15;;;;;;;6.07;4.63;;;16.20;99.90;;;;;;7391366;19;20143;-78
2023/04/30 07:22:44;;;;;;;5.97;4.95;;;16.20;99.90;;;;;;7388694;19;20131;-80
2023/04/30 07:25:13;;;;;;;5.45;4.55;;;16.30;99.90;;;;;;7389528;19;20302;-78
2023/04/30 07:27:39;;;;;;;7.38;4.70;;;16.50;99.90;;;;;;7388149;19;20135;-79
2023/04/30 07:30:08;;;;;;;6.30;4.40;;;16.70;99.90;;;;;;7388244;19;20775;-78
2023/04/30 07:32:36;;;;;;;5.63;5.03;;;16.70;99.90;;;;;;7388743;19;20138;-78
2023/04/30 07:35:02;;;;;;;6.38;4.82;;;16.30;99.90;;;;;;7387179;19;20142;-77
2023/04/30 07:37:28;;;;;;;7.13;4.57;;;16.10;99.90;;;;;;7389174;19;20139;-76
2023/04/30 07:39:54;;;;;;;5.38;4.75;;;16.40;99.90;;;;;;7389803;19;20709;-78
2023/04/30 07:42:19;;;;;;;5.82;4.45;;;16.00;99.90;;;;;;7387545;19;20151;-78
2023/04/30 07:44:47;;;;;;;4.75;4.25;;;16.10;99.90;;;;;;7388193;19;20135;-77
2023/04/30 07:47:13;;;;;;;5.80;3.78;;;16.30;99.90;;;;;;7389067;19;20150;-77
2023/04/30 07:49:39;;;;;;;5.55;3.90;;;16.70;99.90;;;;;;7391908;19;20643;-76
2023/04/30 07:52:07;;;;;;;7.82;4.85;;;17.20;99.90;;;;;;7389873;19;20138;-74
2023/04/30 07:54:35;;;;;;;3.97;3.47;;;17.90;99.90;;;;;;7389096;19;20639;-78
2023/04/30 07:57:02;;;;;;;5.72;3.90;;;18.10;99.90;;;;;;7386699;19;20259;-77
2023/04/30 07:59:27;;;;;;;5.78;4.20;;;17.90;99.90;;;;;;7388941;19;20142;-78
2023/04/30 08:01:53;;;;;;;3.92;3.40;;;17.90;99.90;;;;;;7388587;19;20146;-77
2023/04/30 08:04:19;;;;;;;4.55;3.60;;;18.10;99.90;;;;;;7388223;19;20566;-76
2023/04/30 08:06:45;;;;;;;6.85;4.03;;;18.50;99.90;;;;;;7386795;19;20254;-77
2023/04/30 08:09:11;;;;;;;4.32;3.30;;;18.50;99.90;;;;;;7389480;19;20494;-77
2023/04/30 08:11:36;;;;;;;4.10;3.55;;;18.60;99.90;;;;;;7388359;19;20131;-76
2023/04/30 08:14:03;;;;;;;5.00;3.83;;;19.10;99.90;;;;;;7390159;19;20138;-78
2023/04/30 08:16:29;;;;;;;4.35;3.58;;;19.00;99.90;;;;;;7397426;19;20135;-77
2023/04/30 08:18:55;;;;;;;4.35;3.40;;;19.10;99.90;;;;;;7386560;19;20148;-79
2023/04/30 08:21:26;;;;;;;5.00;3.40;;;19.10;99.90;;;;;;7378420;19;20146;-79
2023/04/30 08:23:54;;;;;;;4.97;3.35;;;19.10;99.90;;;;;;7385846;19;20514;-78
2023/04/30 08:26:20;;;;;;;4.15;3.30;;;19.10;99.90;;;;;;7384517;19;20138;-77
2023/04/30 08:28:46;;;;;;;5.30;3.67;;;19.10;99.90;;;;;;7389481;19;20154;-80
2023/04/30 08:31:12;;;;;;;3.55;3.22;;;19.10;99.90;;;;;;7385150;19;20139;-79
2023/04/30 08:33:38;;;;;;;3.80;3.20;;;19.30;99.90;;;;;;7389706;19;20135;-79
2023/04/30 08:36:04;;;;;;;4.53;3.42;;;19.30;99.90;;;;;;7383503;19;20584;-78
2023/04/30 08:38:30;;;;;;;3.85;3.30;;;19.30;99.90;;;;;;7383498;19;20157;-77
2023/04/30 08:41:14;;;;;;;3.15;2.47;;;19.10;99.90;;;;;;7387747;19;20178;-78
2023/04/30 08:43:43;;;;;;;3.50;2.60;;;18.80;99.90;;;;;;7387554;19;20583;-78
2023/04/30 08:46:12;;;;;;;5.20;3.95;;;18.90;99.90;;;;;;7386370;19;20162;-78
2023/04/30 08:48:39;;;;;;;3.40;2.88;;;18.80;99.90;;;;;;7390058;19;20146;-79
2023/04/30 08:51:05;;;;;;;3.72;2.70;;;18.80;99.90;;;;;;7387235;19;20154;-79
2023/04/30 08:53:36;;;;;;;2.42;2.00;;;18.80;99.90;;;;;;7383650;19;20127;-79
2023/04/30 08:56:03;;;;;;;2.97;2.35;;;18.90;99.90;;;;;;7383300;19;20198;-80
2023/04/30 08:58:28;;;;;;;2.72;2.47;;;18.90;99.90;;;;;;7384658;19;20127;-81
2023/04/30 09:00:58;;;;;;;3.22;2.03;;;18.80;99.90;;;;;;7390023;19;20146;-79
2023/04/30 09:03:25;;;;;;;2.38;1.95;;;18.80;99.90;;;;;;7387998;19;20596;-77
2023/04/30 09:05:51;;;;;;;2.10;1.73;;;18.60;99.90;;;;;;7389846;19;20134;-79
2023/04/30 09:08:18;;;;;;;2.58;1.90;;;18.40;99.90;;;;;;7393603;19;20206;-78
2023/04/30 09:10:44;;;;;;;1.80;1.50;;;18.20;99.90;;;;;;7378352;19;20639;-78
2023/04/30 09:13:12;;;;;;;2.00;1.80;;;18.40;99.90;;;;;;7379589;19;20178;-79
2023/04/30 09:15:44;;;;;;;2.25;2.05;;;18.50;99.90;;;;;;7377339;19;20214;-78
2023/04/30 09:18:16;;;;;;;2.38;1.95;;;18.50;99.90;;;;;;7380593;19;20602;-82
2023/04/30 09:20:57;;;;;;;2.90;2.03;;;18.40;99.90;;;;;;7389432;19;20122;-82
2023/04/30 09:23:24;;;;;;;2.00;1.80;;;18.30;99.90;;;;;;7390063;19;20139;-78
2023/04/30 09:25:52;;;;;;;2.17;1.85;;;18.20;99.90;;;;;;7391451;19;20716;-79
2023/04/30 09:28:22;;;;;;;2.15;1.50;;;18.10;99.90;;;;;;7394684;19;20127;-82
2023/04/30 09:30:49;;;;;;;2.38;2.15;;;18.10;99.90;;;;;;7388728;19;20158;-82
2023/04/30 09:33:16;;;;;;;3.00;2.10;;;18.00;99.90;;;;;;7396313;19;20482;-82
2023/04/30 09:35:42;;;;;;;1.90;1.80;;;17.90;99.90;;;;;;7393793;19;20156;-85
2023/04/30 09:38:25;;;;;;;2.45;2.00;;;17.90;99.90;;;;;;7391678;19;20149;-84
2023/04/30 09:40:59;;;;;;;2.30;2.05;;;17.90;99.90;;;;;;7388844;19;20603;-84
2023/04/30 09:43:26;;;;;;;2.95;1.65;;;17.90;99.90;;;;;;7395049;19;20142;-84
2023/04/30 09:45:52;;;;;;;2.25;1.85;;;18.00;99.90;;;;;;7394600;19;20158;-81
2023/04/30 09:48:21;;;;;;;2.53;1.80;;;17.90;99.90;;;;;;7394755;19;20134;-80
2023/04/30 09:50:47;;;;;;;2.20;1.92;;;18.00;99.90;;;;;;7396340;19;20652;-82
2023/04/30 09:53:16;;;;;;;2.35;1.83;;;18.10;99.90;;;;;;7394297;19;20134;-82
2023/04/30 09:55:50;;;;;;;1.70;1.42;;;18.00;99.90;;;;;;7393606;19;20190;-78
2023/04/30 09:58:17;;;;;;;2.85;1.58;;;18.00;99.90;;;;;;7391594;19;20135;-81
2023/04/30 10:00:45;;;;;;;3.15;1.80;;;18.00;99.90;;;;;;7395028;19;20135;-83
2023/04/30 10:03:13;;;;;;;3.40;2.17;;;18.20;99.90;;;;;;7393918;19;20732;-82
2023/04/30 10:05:47;;;;;;;1.88;1.58;;;18.00;99.90;;;;;;7392353;19;20145;-81
2023/04/30 10:08:29;;;;;;;2.10;1.90;;;18.00;99.90;;;;;;7387759;19;20145;-82
2023/04/30 10:11:02;;;;;;;2.35;1.55;;;18.00;99.90;;;;;;7395470;19;20126;-83
2023/04/30 10:13:32;;;;;;;2.38;1.60;;;18.00;99.90;;;;;;7392016;19;20127;-83
2023/04/30 10:16:04;;;;;;;2.30;1.52;;;17.90;99.90;;;;;;7391851;19;20146;-83
2023/04/30 10:18:36;;;;;;;1.83;1.63;;;18.00;99.90;;;;;;7393461;19;20171;-83
2023/04/30 10:21:10;;;;;;;2.88;1.90;;;17.90;99.90;;;;;;7391163;19;20590;-83
2023/04/30 10:23:43;;;;;;;2.38;1.83;;;17.90;99.90;;;;;;7392696;19;20150;-83
2023/04/30 10:26:15;;;;;;;1.88;1.50;;;17.90;99.90;;;;;;7395094;19;20675;-85
2023/04/30 10:28:41;;;;;;;2.47;1.77;;;17.90;99.90;;;;;;7392896;19;20157;-84
2023/04/30 10:31:11;;;;;;;2.00;1.27;;;17.90;99.90;;;;;;7393584;19;20152;-83
2023/04/30 10:34:10;;;;;;;1.80;1.60;;;17.80;99.90;;;;;;7391228;19;20190;-84
2023/04/30 10:36:47;;;;;;;1.65;1.52;;;17.80;99.90;;;;;;7392655;19;20130;-84
2023/04/30 10:39:17;;;;;;;2.40;1.60;;;17.80;99.90;;;;;;7392966;19;20146;-83
2023/04/30 10:41:47;;;;;;;3.88;2.28;;;17.70;99.90;;;;;;7390976;19;20615;-84
2023/04/30 10:44:20;;;;;;;2.25;1.95;;;17.80;99.90;;;;;;7392140;19;20221;-84
2023/04/30 10:46:46;;;;;;;2.75;1.98;;;17.70;99.90;;;;;;7390609;19;20147;-81
2023/04/30 10:49:13;;;;;;;3.45;1.98;;;17.80;99.90;;;;;;7391634;19;20606;-81
2023/04/30 10:51:50;;;;;;;2.38;1.95;;;17.80;99.90;;;;;;7388175;19;20154;-79
2023/04/30 10:54:24;;;;;;;3.70;2.10;;;17.70;99.90;;;;;;7387278;19;20161;-80
2023/04/30 10:56:51;;;;;;;3.30;2.33;;;17.80;99.90;;;;;;7384727;19;20162;-78
2023/04/30 10:59:17;;;;;;;3.60;2.30;;;17.90;99.90;;;;;;7382905;19;20146;-79
2023/04/30 11:02:00;;;;;;;5.35;2.30;;;17.90;99.90;;;;;;7387975;19;20139;-79
2023/04/30 11:04:26;;;;;;;3.15;2.33;;;17.90;99.90;;;;;;7388594;19;20484;-80
2023/04/30 11:06:52;;;;;;;4.00;2.35;;;17.90;99.90;;;;;;7390037;19;20472;-79
2023/04/30 11:09:42;;;;;;;3.78;2.42;;;17.90;99.90;;;;;;7389822;19;20159;-79
2023/04/30 11:12:18;;;;;;;8.45;3.28;;;17.80;99.90;;;;;;7390524;19;20138;-80
2023/04/30 11:14:45;;;;;;;5.15;2.60;;;18.00;99.90;;;;;;7391714;19;20515;-79
2023/04/30 11:17:21;;;;;;;2.47;2.10;;;18.00;99.90;;;;;;7386677;19;20666;-80
2023/04/30 11:19:51;;;;;;;3.25;2.15;;;18.00;99.90;;;;;;7389837;19;20147;-80
2023/04/30 11:22:23;;;;;;;4.30;2.70;;;18.10;99.90;;;;;;7389277;19;20142;-81
2023/04/30 11:24:50;;;;;;;3.60;2.00;;;18.20;99.90;;;;;;7388752;19;20163;-81
2023/04/30 11:27:29;;;;;;;5.75;2.60;;;18.20;99.90;;;;;;7388543;19;20744;-81
2023/04/30 11:29:56;;;;;;;2.30;2.10;;;18.20;99.90;;;;;;7389420;19;20626;-81
2023/04/30 11:32:25;;;;;;;5.07;2.70;;;18.20;99.90;;;;;;7391206;19;20529;-83
2023/04/30 11:34:55;;;;;;;4.32;2.10;;;18.20;99.90;;;;;;7393465;19;20154;-80
2023/04/30 11:37:45;;;;;;;3.13;2.08;;;18.20;99.90;;;;;;7389779;19;20154;-82
2023/04/30 11:40:12;;;;;;;2.58;1.90;;;18.10;99.90;;;;;;7388581;19;20159;-81
2023/04/30 11:42:40;;;;;;;3.05;1.95;;;18.00;99.90;;;;;;7386363;19;20158;-82
2023/04/30 11:45:07;;;;;;;2.88;2.05;;;18.00;99.90;;;;;;7386060;19;20162;-82
2023/04/30 11:47:53;;;;;;;3.35;2.10;;;18.20;99.90;;;;;;7389961;19;20165;-82
2023/04/30 11:50:31;;;;;;;2.95;2.10;;;18.10;99.90;;;;;;7388937;19;20150;-82
2023/04/30 11:53:02;;;;;;;2.15;1.90;;;18.10;99.90;;;;;;7389172;19;20126;-82
2023/04/30 11:55:28;;;;;;;2.72;1.90;;;18.10;99.90;;;;;;7388913;19;20170;-82
2023/04/30 11:57:55;;;;;;;4.05;2.08;;;18.10;99.90;;;;;;7389390;19;20139;-81
2023/04/30 12:00:27;;;;;;;1.67;1.50;;;18.10;99.90;;;;;;7387891;19;20156;-80
2023/04/30 12:02:54;;;;;;;2.08;1.65;;;18.20;99.90;;;;;;7390476;19;20135;-80
2023/04/30 12:05:22;;;;;;;2.47;2.00;;;18.20;99.90;;;;;;7386029;19;20193;-80
2023/04/30 12:08:05;;;;;;;2.20;1.88;;;18.40;99.90;;;;;;7388797;19;20146;-82
2023/04/30 12:10:31;;;;;;;2.03;1.60;;;18.30;99.90;;;;;;7387946;19;20166;-83
2023/04/30 12:12:57;;;;;;;3.53;2.45;;;18.20;99.90;;;;;;7389809;19;20174;-82
2023/04/30 12:15:25;;;;;;;3.00;2.20;;;18.20;99.90;;;;;;7388319;19;20598;-80
2023/04/30 12:17:53;;;;;;;4.32;1.77;;;18.30;99.90;;;;;;7387733;19;20163;-79
2023/04/30 12:20:20;;;;;;;2.10;1.60;;;18.40;99.90;;;;;;7386677;19;20159;-82
2023/04/30 12:22:50;;;;;;;2.17;1.60;;;18.40;99.90;;;;;;7387445;19;20379;-82
2023/04/30 12:25:18;;;;;;;2.47;2.03;;;18.40;99.90;;;;;;7388904;19;20218;-83
2023/04/30 12:27:49;;;;;;;1.65;1.55;;;18.40;99.90;;;;;;7385870;19;20137;-82
2023/04/30 12:30:25;;;;;;;2.40;1.90;;;18.30;99.90;;;;;;7389527;19;20151;-83
2023/04/30 12:32:53;;;;;;;2.45;1.70;;;18.30;99.90;;;;;;7386706;19;20157;-83
2023/04/30 12:35:21;;;;;;;2.65;1.92;;;18.30;99.90;;;;;;7387530;19;20130;-83
2023/04/30 12:37:51;;;;;;;2.13;1.80;;;18.40;99.90;;;;;;7387279;19;20166;-83
2023/04/30 12:40:20;;;;;;;1.50;1.40;;;18.50;99.70;;;;;;7388287;19;20146;-81
2023/04/30 12:42:46;;;;;;;1.52;1.30;;;18.40;99.90;;;;;;7384174;19;20174;-83
2023/04/30 12:45:51;;;;;;;3.60;1.98;;;18.30;99.90;;;;;;7389521;19;20135;-83
2023/04/30 12:48:19;;;;;;;3.90;2.08;;;18.40;99.90;;;;;;7388358;19;20149;-83
2023/04/30 12:51:05;;;;;;;1.63;1.52;;;18.40;99.90;;;;;;7388228;19;20574;-81
2023/04/30 12:53:31;;;;;;;2.65;1.85;;;18.40;99.90;;;;;;7387954;19;20138;-83